LICC/CTA METAR and TAF weather

Enter ICAO airport designator
Station Type Date Time Source
LICC METAR 2019/12/09 21:50 UTC NOAA

LICC 092150Z 24009KT 9999 FEW100 10/08 Q1011


Station Type Date Time Source
LICC Decoded METAR 2019/12/09 21:50 UTC NOAA

Catania / Fontanarossa, Italy (LICC) 37-28N 015-03E 17M
Dec 09, 2019 - 04:50 PM EST / 2019.12.09 2150 UTC
Wind: from the WSW (240 degrees) at 10 MPH (9 KT):0
Visibility: greater than 7 mile(s):0
Sky conditions: mostly clear
Temperature: 50 F (10 C)
Dew Point: 46 F (8 C)
Relative Humidity: 87%
Pressure (altimeter): 29.85 in. Hg (1011 hPa)
ob: LICC 092150Z 24009KT 9999 FEW100 10/08 Q1011
cycle: 22

Station Type Date Time Source
LICC TAF 2019/12/09 18:21 UTC NOAA

TAF LICC 091700Z 0918/1018 26010KT 9999 SCT030

Example: see airport list